Time;durP1;ratioP1;P1;durP2;ratioP2;P2;SDS_P1;SDS_P2;PMS_P1;PMS_P2;Temp;Humidity;BMP_temperature;BMP_pressure;BME280_temperature;BME280_humidity;BME280_pressure;Samples;Min_cycle;Max_cycle;Signal;HPM_P1;HPM_P2
2022/03/17 00:00:10;;;;;;;22.80;18.02;;;11.10;72.10;;;;;;4934646;29;20039;-69
2022/03/17 00:02:37;;;;;;;22.02;17.15;;;11.10;72.80;;;;;;4934233;29;20050;-68
2022/03/17 00:05:04;;;;;;;24.58;18.30;;;11.00;73.70;;;;;;4935039;29;20044;-69
2022/03/17 00:07:31;;;;;;;22.40;16.45;;;11.10;73.30;;;;;;4934509;29;20052;-69
2022/03/17 00:09:57;;;;;;;28.05;19.92;;;11.00;73.20;;;;;;4916996;29;20507;-69
2022/03/17 00:12:23;;;;;;;23.67;16.58;;;11.10;73.50;;;;;;4916836;29;20385;-69
2022/03/17 00:14:48;;;;;;;25.83;17.95;;;11.00;73.50;;;;;;4934431;29;20055;-68
2022/03/17 00:17:14;;;;;;;22.45;16.88;;;11.00;73.60;;;;;;4930997;29;20032;-68
2022/03/17 00:19:40;;;;;;;27.92;18.88;;;11.00;73.80;;;;;;4934126;29;20039;-70
2022/03/17 00:22:08;;;;;;;27.10;17.88;;;11.00;73.90;;;;;;4933542;29;21009;-69
2022/03/17 00:24:37;;;;;;;27.13;18.20;;;10.90;74.10;;;;;;4916855;29;20044;-69
2022/03/17 00:27:05;;;;;;;22.20;16.70;;;11.00;74.10;;;;;;4934518;29;20127;-70
2022/03/17 00:29:33;;;;;;;23.25;17.65;;;10.90;74.10;;;;;;4933940;29;20055;-68
2022/03/17 00:31:59;;;;;;;25.77;18.38;;;10.90;74.30;;;;;;4916422;29;20055;-69
2022/03/17 00:34:24;;;;;;;24.83;17.40;;;10.90;74.50;;;;;;4902048;29;20770;-69
2022/03/17 00:36:50;;;;;;;22.15;17.70;;;10.90;74.30;;;;;;4935345;29;20043;-69
2022/03/17 00:39:16;;;;;;;24.55;19.05;;;10.90;74.50;;;;;;4934688;29;20071;-68
2022/03/17 00:41:43;;;;;;;29.45;19.65;;;10.90;74.20;;;;;;4934236;29;20509;-69
2022/03/17 00:44:12;;;;;;;22.45;17.98;;;10.90;74.40;;;;;;4935355;29;20114;-71
2022/03/17 00:46:39;;;;;;;23.63;17.70;;;10.90;74.30;;;;;;4934412;29;20565;-68
2022/03/17 00:49:05;;;;;;;22.80;18.65;;;10.90;74.40;;;;;;4935222;29;20052;-69
2022/03/17 00:51:31;;;;;;;28.58;19.42;;;10.90;74.20;;;;;;4922320;29;20497;-69
2022/03/17 00:53:57;;;;;;;27.77;18.45;;;10.90;74.30;;;;;;4916239;29;20063;-68
2022/03/17 00:56:22;;;;;;;23.35;16.67;;;10.90;74.30;;;;;;4916084;29;20044;-69
2022/03/17 00:58:48;;;;;;;24.20;18.27;;;11.00;74.20;;;;;;4915451;29;20048;-66
2022/03/17 01:01:17;;;;;;;22.27;18.33;;;10.90;74.30;;;;;;4925032;29;20051;-69
2022/03/17 01:03:44;;;;;;;24.95;19.02;;;11.00;74.10;;;;;;4934695;29;20464;-69
2022/03/17 01:06:10;;;;;;;34.28;22.15;;;11.00;74.20;;;;;;4934432;29;20058;-68
2022/03/17 01:08:37;;;;;;;24.30;19.20;;;11.00;74.20;;;;;;4934387;29;20047;-68
2022/03/17 01:11:03;;;;;;;24.00;19.42;;;11.00;74.50;;;;;;4934542;29;20500;-69
2022/03/17 01:13:29;;;;;;;23.83;18.45;;;10.90;74.60;;;;;;4935030;29;20907;-69
2022/03/17 01:15:55;;;;;;;23.42;18.98;;;10.90;74.90;;;;;;4902050;29;20043;-69
2022/03/17 01:18:21;;;;;;;25.13;19.15;;;10.90;74.70;;;;;;4931947;29;20373;-68
2022/03/17 01:20:48;;;;;;;25.10;20.25;;;10.90;74.70;;;;;;4934855;29;20146;-68
2022/03/17 01:23:14;;;;;;;24.15;18.95;;;10.80;74.90;;;;;;4934255;29;20472;-69
2022/03/17 01:25:39;;;;;;;26.50;20.08;;;10.90;74.60;;;;;;4923138;29;20051;-70
2022/03/17 01:28:05;;;;;;;26.85;19.83;;;10.90;74.90;;;;;;4934283;29;20067;-69
2022/03/17 01:30:31;;;;;;;25.75;19.90;;;10.90;74.80;;;;;;4916473;29;20067;-68
2022/03/17 01:32:56;;;;;;;28.52;20.23;;;10.90;74.90;;;;;;4934038;29;20036;-69
2022/03/17 01:35:22;;;;;;;25.27;19.10;;;10.90;75.00;;;;;;4932987;29;20547;-68
2022/03/17 01:37:47;;;;;;;26.15;19.33;;;10.90;75.30;;;;;;4948150;29;20043;-69
2022/03/17 01:40:13;;;;;;;27.90;21.20;;;10.80;75.40;;;;;;4948134;29;20079;-69
2022/03/17 01:42:39;;;;;;;26.50;21.38;;;10.80;75.70;;;;;;4933894;29;20047;-69
2022/03/17 01:45:06;;;;;;;30.58;22.00;;;10.80;75.90;;;;;;4916451;29;20400;-69
2022/03/17 01:47:33;;;;;;;29.15;22.27;;;10.80;76.00;;;;;;4933807;29;20051;-70
2022/03/17 01:50:11;;;;;;;27.92;22.77;;;10.80;76.20;;;;;;4931882;29;20070;-69
2022/03/17 01:52:38;;;;;;;26.67;23.08;;;10.80;76.70;;;;;;4924756;29;20138;-69
2022/03/17 01:55:05;;;;;;;28.00;22.38;;;10.70;76.40;;;;;;4924679;29;20512;-69
2022/03/17 01:57:31;;;;;;;27.92;22.52;;;10.70;76.90;;;;;;4929118;29;20062;-68
2022/03/17 01:59:59;;;;;;;27.15;23.45;;;10.60;77.70;;;;;;4922167;29;20484;-68
2022/03/17 02:02:25;;;;;;;30.83;23.98;;;10.60;77.50;;;;;;4930309;29;20047;-68
2022/03/17 02:04:51;;;;;;;27.05;23.83;;;10.60;77.90;;;;;;4949170;29;20106;-68
2022/03/17 02:07:19;;;;;;;28.50;23.45;;;10.60;78.20;;;;;;4933599;29;20051;-68
2022/03/17 02:09:45;;;;;;;29.25;24.48;;;10.50;78.30;;;;;;4933303;29;20048;-68
2022/03/17 02:15:00;;;;;;;30.98;25.73;;;10.50;78.80;;;;;;4933467;29;20090;-69
2022/03/17 02:17:27;;;;;;;34.95;26.10;;;10.50;78.90;;;;;;4919692;29;20535;-70
2022/03/17 02:19:54;;;;;;;31.05;24.85;;;10.50;78.80;;;;;;4933119;29;20062;-70
2022/03/17 02:22:21;;;;;;;31.30;26.02;;;10.50;79.00;;;;;;4933154;29;20078;-70
2022/03/17 02:27:35;;;;;;;31.10;25.70;;;10.40;79.00;;;;;;4932817;29;20138;-70
2022/03/17 02:30:03;;;;;;;30.23;26.42;;;10.40;79.30;;;;;;4931850;29;20043;-69
2022/03/17 02:32:29;;;;;;;29.67;25.50;;;10.50;79.30;;;;;;4931564;29;20425;-70
2022/03/17 02:34:55;;;;;;;32.15;27.02;;;10.50;79.30;;;;;;4933602;29;20071;-70
2022/03/17 02:37:21;;;;;;;31.02;24.75;;;10.50;79.20;;;;;;4933268;29;20158;-69
2022/03/17 02:39:47;;;;;;;33.05;26.77;;;10.40;79.40;;;;;;4934377;29;20043;-69
2022/03/17 02:42:12;;;;;;;29.88;25.67;;;10.40;79.20;;;;;;4915764;29;20050;-70
2022/03/17 02:44:38;;;;;;;33.13;27.08;;;10.50;79.30;;;;;;4915891;29;20054;-68
2022/03/17 02:47:05;;;;;;;34.47;27.83;;;10.50;79.40;;;;;;4915305;29;20048;-70
2022/03/17 02:49:32;;;;;;;32.83;27.48;;;10.50;79.20;;;;;;4915954;29;20044;-68
2022/03/17 02:51:57;;;;;;;33.75;27.20;;;10.50;79.30;;;;;;4928198;29;20063;-70
2022/03/17 02:54:23;;;;;;;32.75;27.52;;;10.60;79.20;;;;;;4931094;29;20054;-69
2022/03/17 02:56:48;;;;;;;30.50;27.25;;;10.50;79.10;;;;;;4929306;29;20106;-68
2022/03/17 02:59:14;;;;;;;31.23;27.83;;;10.50;79.30;;;;;;4920947;29;20055;-68
2022/03/17 03:01:40;;;;;;;36.42;28.75;;;10.60;79.50;;;;;;4920163;29;20102;-68
2022/03/17 03:04:06;;;;;;;35.60;29.50;;;10.50;79.60;;;;;;4915383;29;20501;-69
2022/03/17 03:06:31;;;;;;;37.45;30.95;;;10.60;79.30;;;;;;4913687;29;20043;-69
2022/03/17 03:08:58;;;;;;;38.55;31.90;;;10.60;79.40;;;;;;4933870;29;20055;-68
2022/03/17 03:11:24;;;;;;;39.03;31.63;;;10.60;79.50;;;;;;4935961;29;20158;-68
2022/03/17 03:13:50;;;;;;;37.03;32.33;;;10.50;80.20;;;;;;4952172;29;20055;-68
2022/03/17 03:16:16;;;;;;;39.30;32.85;;;10.50;80.60;;;;;;4952517;29;20054;-68
2022/03/17 03:18:41;;;;;;;43.08;34.33;;;10.50;81.10;;;;;;4951845;29;20054;-69
2022/03/17 03:21:07;;;;;;;40.90;36.65;;;10.40;81.10;;;;;;4941876;29;20516;-68
2022/03/17 03:23:34;;;;;;;40.55;36.25;;;10.40;81.70;;;;;;4939843;29;20054;-68
2022/03/17 03:26:00;;;;;;;42.42;37.65;;;10.40;81.80;;;;;;4935370;29;20050;-69
2022/03/17 03:28:25;;;;;;;41.25;36.72;;;10.30;82.10;;;;;;4954382;28;20047;-69
2022/03/17 03:30:53;;;;;;;43.65;36.75;;;10.30;83.00;;;;;;4956368;29;20055;-68
2022/03/17 03:33:18;;;;;;;44.45;38.35;;;10.30;83.40;;;;;;4945037;29;20675;-69
2022/03/17 03:38:28;;;;;;;43.33;36.58;;;10.10;84.30;;;;;;4937029;29;20055;-67
2022/03/17 03:40:53;;;;;;;42.58;37.95;;;10.10;84.20;;;;;;4935798;29;20050;-68
2022/03/17 03:43:19;;;;;;;44.88;37.00;;;10.10;84.20;;;;;;4935806;29;20191;-68
2022/03/17 03:45:45;;;;;;;41.20;36.70;;;10.10;84.50;;;;;;4935976;29;20094;-69
2022/03/17 03:48:11;;;;;;;43.75;36.72;;;10.00;84.90;;;;;;4917587;29;20127;-69
2022/03/17 03:50:39;;;;;;;40.65;35.60;;;10.00;85.40;;;;;;4900736;29;20052;-68
2022/03/17 03:53:05;;;;;;;42.33;37.72;;;10.00;85.90;;;;;;4917436;29;20406;-69
2022/03/17 03:55:31;;;;;;;45.05;36.97;;;10.00;85.90;;;;;;4916639;29;20055;-68
2022/03/17 03:57:58;;;;;;;40.40;35.20;;;10.00;86.20;;;;;;4900675;29;20048;-69
2022/03/17 04:02:56;;;;;;;40.03;34.55;;;9.90;87.40;;;;;;4927211;29;20126;-69
2022/03/17 04:05:40;;;;;;;31.40;27.10;;;10.00;86.90;;;;;;4918500;29;20102;-69
2022/03/17 04:08:06;;;;;;;24.85;22.30;;;10.00;88.10;;;;;;4935814;29;20047;-68
2022/03/17 04:10:31;;;;;;;17.10;15.35;;;10.00;87.60;;;;;;4902855;29;20052;-69
2022/03/17 04:12:57;;;;;;;17.52;15.73;;;9.70;86.70;;;;;;4930597;29;20043;-69
2022/03/17 04:15:23;;;;;;;16.83;15.15;;;9.40;86.80;;;;;;4932637;29;20067;-68
2022/03/17 04:17:51;;;;;;;16.60;14.93;;;9.20;87.30;;;;;;4918562;29;20048;-69
2022/03/17 04:20:17;;;;;;;22.38;16.10;;;9.00;87.50;;;;;;4932589;29;20102;-68
2022/03/17 04:22:43;;;;;;;16.90;15.20;;;8.90;87.60;;;;;;4934610;29;20051;-69
2022/03/17 04:25:09;;;;;;;17.88;16.17;;;8.80;87.90;;;;;;4934920;29;20114;-69
2022/03/17 04:27:35;;;;;;;17.58;15.65;;;8.60;88.40;;;;;;4902807;29;20055;-69
2022/03/17 04:30:00;;;;;;;17.63;14.45;;;8.60;88.50;;;;;;4935615;29;20449;-69
2022/03/17 04:32:26;;;;;;;15.15;13.70;;;8.50;88.90;;;;;;4935046;29;20047;-69
2022/03/17 04:34:52;;;;;;;19.48;13.57;;;8.50;88.90;;;;;;4935578;29;20481;-69
2022/03/17 04:37:17;;;;;;;13.93;12.57;;;8.50;88.40;;;;;;4935526;29;20040;-69
2022/03/17 04:39:43;;;;;;;14.55;13.18;;;8.30;89.00;;;;;;4934676;29;20043;-68
2022/03/17 04:42:09;;;;;;;15.38;12.82;;;8.20;89.40;;;;;;4935305;29;20047;-69
2022/03/17 04:44:35;;;;;;;15.13;13.00;;;8.20;89.40;;;;;;4917991;29;20138;-69
2022/03/17 04:47:01;;;;;;;19.20;13.50;;;8.20;89.30;;;;;;4934609;29;20134;-69
2022/03/17 04:49:27;;;;;;;17.30;12.63;;;8.20;89.40;;;;;;4917425;29;20056;-69
2022/03/17 04:51:52;;;;;;;14.25;12.90;;;8.10;89.70;;;;;;4917854;29;20058;-68
2022/03/17 04:54:18;;;;;;;21.92;15.10;;;8.10;89.60;;;;;;4934597;29;20460;-69
2022/03/17 04:56:44;;;;;;;25.83;14.95;;;8.10;89.50;;;;;;4935365;29;20386;-69
2022/03/17 04:59:09;;;;;;;27.95;15.93;;;8.10;89.20;;;;;;4935075;29;20079;-69
2022/03/17 05:01:35;;;;;;;31.23;16.40;;;8.10;89.30;;;;;;4931728;29;20074;-69
2022/03/17 05:04:00;;;;;;;29.83;16.08;;;8.10;89.20;;;;;;4917083;29;20052;-69
2022/03/17 05:06:26;;;;;;;25.58;16.83;;;8.10;89.50;;;;;;4934804;29;20055;-69
2022/03/17 05:08:51;;;;;;;31.48;17.40;;;8.00;89.30;;;;;;4912649;29;20036;-69
2022/03/17 05:11:18;;;;;;;26.95;17.02;;;8.00;89.30;;;;;;4926076;29;20413;-69
2022/03/17 05:13:44;;;;;;;35.13;16.02;;;8.00;89.40;;;;;;4933589;29;20400;-69
2022/03/17 05:16:11;;;;;;;25.35;15.60;;;8.00;89.30;;;;;;4933273;29;20044;-70
2022/03/17 05:18:37;;;;;;;26.67;14.18;;;7.90;89.20;;;;;;4915473;29;20047;-68
2022/03/17 05:21:03;;;;;;;17.90;11.20;;;8.00;89.00;;;;;;4921049;29;20047;-70
2022/03/17 05:23:31;;;;;;;22.80;10.45;;;7.90;88.80;;;;;;4932275;29;20086;-68
2022/03/17 05:25:57;;;;;;;27.05;10.88;;;7.90;88.60;;;;;;4929712;29;20052;-68
2022/03/17 05:28:23;;;;;;;21.25;10.40;;;7.90;88.60;;;;;;4935220;29;20477;-68
2022/03/17 05:30:48;;;;;;;19.08;10.57;;;7.90;88.50;;;;;;4952397;28;20130;-69
2022/03/17 05:33:14;;;;;;;19.60;10.13;;;7.90;88.30;;;;;;4952712;29;20089;-68
2022/03/17 05:35:41;;;;;;;14.45;9.95;;;8.00;88.00;;;;;;4952063;28;20054;-69
2022/03/17 05:38:08;;;;;;;21.42;10.10;;;7.90;87.80;;;;;;4952278;28;20047;-69
2022/03/17 05:40:34;;;;;;;29.65;11.88;;;7.90;88.00;;;;;;4930263;29;20055;-69
2022/03/17 05:43:03;;;;;;;23.92;9.43;;;7.90;88.00;;;;;;4940324;29;20051;-69
2022/03/17 05:45:29;;;;;;;26.50;11.50;;;7.90;87.90;;;;;;4930289;29;20126;-69
2022/03/17 05:47:58;;;;;;;20.88;11.55;;;7.80;88.00;;;;;;4915151;29;20082;-70
2022/03/17 05:50:26;;;;;;;22.33;10.18;;;7.80;88.20;;;;;;4924902;29;20111;-69
2022/03/17 05:52:52;;;;;;;23.73;10.25;;;7.80;88.20;;;;;;4913495;29;20044;-69
2022/03/17 05:55:21;;;;;;;19.50;9.50;;;7.80;88.00;;;;;;4924489;29;20044;-70
2022/03/17 05:57:48;;;;;;;14.77;9.07;;;7.80;88.10;;;;;;4930784;29;20198;-69
2022/03/17 06:00:16;;;;;;;16.15;8.05;;;7.90;87.50;;;;;;4926701;29;20051;-70
2022/03/17 06:02:42;;;;;;;14.15;7.63;;;7.90;87.20;;;;;;4930532;29;20047;-69
2022/03/17 06:05:08;;;;;;;17.25;9.02;;;7.80;86.90;;;;;;4932264;29;20051;-69
2022/03/17 06:07:39;;;;;;;11.13;6.93;;;7.80;86.90;;;;;;4932582;29;20046;-71
2022/03/17 06:10:06;;;;;;;17.70;7.93;;;7.80;86.60;;;;;;4931295;29;20048;-70
2022/03/17 06:12:32;;;;;;;14.85;6.75;;;7.70;86.50;;;;;;4932353;29;20099;-69
2022/03/17 06:14:58;;;;;;;12.90;7.03;;;7.80;86.50;;;;;;4930664;29;20485;-71
2022/03/17 06:17:35;;;;;;;11.65;6.15;;;7.80;86.10;;;;;;4931991;29;20444;-70
2022/03/17 06:20:00;;;;;;;12.50;6.55;;;7.80;85.90;;;;;;4914308;29;20382;-71
2022/03/17 06:22:26;;;;;;;17.10;7.03;;;7.70;85.90;;;;;;4930672;29;20337;-70
2022/03/17 06:24:52;;;;;;;17.83;6.35;;;7.80;85.50;;;;;;4912057;29;20052;-71
2022/03/17 06:27:17;;;;;;;20.52;7.07;;;7.70;85.60;;;;;;4924188;29;20500;-69
2022/03/17 06:29:43;;;;;;;20.80;8.32;;;7.70;85.50;;;;;;4927807;29;20123;-69
2022/03/17 06:32:09;;;;;;;16.90;6.53;;;7.70;85.30;;;;;;4931723;29;20044;-70
2022/03/17 06:34:35;;;;;;;13.18;5.72;;;7.70;85.30;;;;;;4932393;29;20090;-70
2022/03/17 06:37:00;;;;;;;18.95;6.45;;;7.70;84.90;;;;;;4932029;29;20075;-70
2022/03/17 06:39:26;;;;;;;11.55;5.45;;;7.70;85.20;;;;;;4927823;29;20048;-70
2022/03/17 06:41:51;;;;;;;11.45;5.72;;;7.70;84.80;;;;;;4930858;29;20071;-69
2022/03/17 06:44:17;;;;;;;11.38;5.80;;;7.70;84.60;;;;;;4931824;29;20048;-70
2022/03/17 06:46:42;;;;;;;14.65;5.93;;;7.70;84.70;;;;;;4930709;29;20086;-69
2022/03/17 06:49:08;;;;;;;17.33;7.15;;;7.70;84.80;;;;;;4914975;29;20560;-69
2022/03/17 06:51:33;;;;;;;15.45;6.43;;;7.70;85.30;;;;;;4931524;29;20063;-69
2022/03/17 06:53:59;;;;;;;19.95;6.80;;;7.80;85.10;;;;;;4932011;29;20055;-69
2022/03/17 06:56:25;;;;;;;17.30;6.82;;;7.80;85.00;;;;;;4931342;29;20059;-69
2022/03/17 06:58:50;;;;;;;16.90;6.38;;;7.70;85.10;;;;;;4918429;29;20052;-69
2022/03/17 07:01:16;;;;;;;19.13;6.13;;;7.60;85.40;;;;;;4897288;29;20059;-68
2022/03/17 07:03:41;;;;;;;17.92;5.45;;;7.70;84.80;;;;;;4917177;29;20127;-69
2022/03/17 07:06:07;;;;;;;17.17;5.28;;;7.60;84.00;;;;;;4918224;29;20051;-69
2022/03/17 07:08:32;;;;;;;21.52;5.57;;;7.60;83.50;;;;;;4918801;29;20390;-69
2022/03/17 07:10:58;;;;;;;19.63;5.13;;;7.60;83.10;;;;;;4917670;29;20462;-69
2022/03/17 07:13:24;;;;;;;14.95;4.82;;;7.60;82.20;;;;;;4934240;29;20130;-70
2022/03/17 07:15:49;;;;;;;18.48;5.68;;;7.60;82.00;;;;;;4920918;29;20087;-70
2022/03/17 07:18:15;;;;;;;15.65;6.20;;;7.70;82.20;;;;;;4936765;29;20118;-69
2022/03/17 07:20:41;;;;;;;15.90;5.97;;;7.60;82.70;;;;;;4937011;29;20059;-69
2022/03/17 07:23:07;;;;;;;23.95;5.35;;;7.60;82.80;;;;;;4933176;29;20047;-69
2022/03/17 07:25:32;;;;;;;17.05;5.85;;;7.60;82.10;;;;;;4936916;29;20186;-69
2022/03/17 07:27:58;;;;;;;33.38;7.85;;;7.60;81.70;;;;;;4935741;29;20063;-69
2022/03/17 07:30:26;;;;;;;15.95;5.15;;;7.60;81.50;;;;;;4924479;29;20048;-71
2022/03/17 07:32:54;;;;;;;19.60;5.65;;;7.70;81.50;;;;;;4908270;29;20112;-72
2022/03/17 07:35:22;;;;;;;17.00;6.22;;;7.70;81.60;;;;;;4909813;29;20099;-72
2022/03/17 07:37:49;;;;;;;15.50;5.22;;;7.60;81.90;;;;;;4917305;29;20048;-70
2022/03/17 07:40:15;;;;;;;24.98;6.07;;;7.70;81.90;;;;;;4905888;29;20062;-72
2022/03/17 07:42:40;;;;;;;15.05;5.22;;;7.70;80.70;;;;;;4899583;29;20425;-72
2022/03/17 07:45:08;;;;;;;25.73;5.72;;;7.60;81.00;;;;;;4917479;29;20117;-72
2022/03/17 07:47:34;;;;;;;19.23;4.35;;;7.60;80.50;;;;;;4925553;29;20044;-75
2022/03/17 07:50:04;;;;;;;15.23;3.95;;;7.70;78.80;;;;;;4915989;29;20127;-70
2022/03/17 07:52:30;;;;;;;21.80;5.50;;;7.70;78.80;;;;;;4920555;29;20056;-69
2022/03/17 07:54:56;;;;;;;18.65;5.07;;;7.70;79.30;;;;;;4934309;29;20046;-72
2022/03/17 07:57:21;;;;;;;25.05;5.70;;;7.70;79.30;;;;;;4936358;29;20046;-71
2022/03/17 07:59:47;;;;;;;19.65;4.40;;;7.70;79.10;;;;;;4931616;29;20048;-72
2022/03/17 08:02:13;;;;;;;15.40;4.30;;;7.60;78.60;;;;;;4904886;29;20465;-72
2022/03/17 08:04:40;;;;;;;22.73;5.00;;;7.70;78.10;;;;;;4935082;29;20527;-72
2022/03/17 08:07:05;;;;;;;21.15;5.18;;;7.70;78.50;;;;;;4935980;29;20055;-71
2022/03/17 08:09:31;;;;;;;19.55;5.82;;;7.60;79.00;;;;;;4936201;29;20055;-71
2022/03/17 08:11:57;;;;;;;21.55;5.88;;;7.70;78.60;;;;;;4921118;29;20096;-70
2022/03/17 08:14:22;;;;;;;23.42;4.43;;;7.70;78.80;;;;;;4919752;29;20111;-73
2022/03/17 08:16:48;;;;;;;22.52;4.78;;;7.70;79.40;;;;;;4909825;29;20043;-74
2022/03/17 08:19:14;;;;;;;22.42;5.60;;;7.80;79.20;;;;;;4930687;29;20051;-74
2022/03/17 08:21:40;;;;;;;21.73;5.35;;;7.80;79.10;;;;;;4909347;29;20666;-72
2022/03/17 08:24:07;;;;;;;11.80;3.88;;;7.80;79.10;;;;;;4922925;29;20039;-71
2022/03/17 08:26:34;;;;;;;16.58;4.13;;;7.90;77.50;;;;;;4930999;29;20052;-72
2022/03/17 08:29:00;;;;;;;20.55;5.03;;;7.90;77.40;;;;;;4916624;29;20036;-72
2022/03/17 08:31:27;;;;;;;20.20;5.78;;;8.00;77.70;;;;;;4899788;29;20063;-71
2022/03/17 08:33:56;;;;;;;15.82;4.07;;;8.00;78.00;;;;;;4933933;29;20065;-73
2022/03/17 08:36:23;;;;;;;10.38;4.00;;;8.10;77.30;;;;;;4925789;28;20047;-73
2022/03/17 08:38:52;;;;;;;18.85;4.63;;;8.00;77.20;;;;;;4937912;29;20106;-71
2022/03/17 08:41:20;;;;;;;18.35;7.80;;;8.00;77.80;;;;;;4941625;29;20417;-72
2022/03/17 08:43:46;;;;;;;20.55;7.07;;;8.00;78.20;;;;;;4935845;29;20054;-71
2022/03/17 08:51:40;;;;;;;19.15;4.32;;;8.10;78.40;;;;;;4928185;29;20055;-73
2022/03/17 08:54:06;;;;;;;12.73;5.38;;;8.20;79.30;;;;;;4933823;29;20043;-71
2022/03/17 08:56:36;;;;;;;14.93;4.32;;;8.30;79.00;;;;;;4917724;29;20666;-71
2022/03/17 08:59:03;;;;;;;15.45;3.90;;;8.40;77.80;;;;;;4918018;29;20512;-72
2022/03/17 09:01:29;;;;;;;16.45;3.80;;;8.40;76.90;;;;;;4912762;29;20483;-74
2022/03/17 09:03:55;;;;;;;19.77;7.05;;;8.40;76.30;;;;;;4915974;29;20059;-72
2022/03/17 09:06:22;;;;;;;14.18;4.00;;;8.50;77.40;;;;;;4916751;29;20043;-73
2022/03/17 09:08:48;;;;;;;13.55;5.78;;;8.50;76.00;;;;;;4916114;29;20549;-72
2022/03/17 09:11:14;;;;;;;12.43;3.80;;;8.40;75.60;;;;;;4928922;29;20056;-71
2022/03/17 09:13:40;;;;;;;14.32;3.50;;;8.50;76.60;;;;;;4934301;29;20047;-73
2022/03/17 09:16:06;;;;;;;20.08;5.68;;;8.60;77.10;;;;;;4934986;29;20074;-72
2022/03/17 09:18:32;;;;;;;18.13;3.67;;;8.60;76.60;;;;;;4925689;29;20052;-72
2022/03/17 09:21:00;;;;;;;12.30;4.05;;;8.60;75.90;;;;;;4953983;29;20047;-73
2022/03/17 09:23:26;;;;;;;30.02;5.35;;;8.70;76.50;;;;;;4948852;29;20083;-71
2022/03/17 09:25:53;;;;;;;17.27;4.70;;;8.60;76.20;;;;;;4938109;28;20075;-72
2022/03/17 09:28:18;;;;;;;14.68;3.78;;;8.70;75.40;;;;;;4926967;29;20063;-72
2022/03/17 09:30:44;;;;;;;18.17;3.10;;;8.70;75.50;;;;;;4917652;29;20409;-71
2022/03/17 09:33:10;;;;;;;15.63;4.22;;;8.70;74.60;;;;;;4933478;29;20183;-71
2022/03/17 09:35:37;;;;;;;19.75;3.83;;;8.70;74.50;;;;;;4933836;29;20047;-72
2022/03/17 09:38:07;;;;;;;11.60;3.05;;;8.70;74.30;;;;;;4933868;29;20051;-71
2022/03/17 09:40:38;;;;;;;20.58;3.88;;;8.60;74.30;;;;;;4934173;29;20217;-72
2022/03/17 09:43:19;;;;;;;16.83;3.33;;;8.60;74.30;;;;;;4934352;29;20052;-71
2022/03/17 09:45:46;;;;;;;22.42;5.07;;;8.70;74.80;;;;;;4933666;29;20051;-71
2022/03/17 09:48:14;;;;;;;12.00;3.72;;;8.80;75.10;;;;;;4933444;29;20058;-71
2022/03/17 09:50:41;;;;;;;17.10;2.78;;;8.80;74.40;;;;;;4934035;29;20066;-71
2022/03/17 09:53:08;;;;;;;18.45;3.72;;;8.90;73.80;;;;;;4933374;29;20051;-72
2022/03/17 09:55:34;;;;;;;20.55;5.25;;;8.90;74.60;;;;;;4933789;29;20106;-71
2022/03/17 09:58:03;;;;;;;8.88;2.67;;;9.00;74.00;;;;;;4933865;29;20502;-71
2022/03/17 10:00:47;;;;;;;16.35;2.75;;;9.00;74.30;;;;;;4933854;29;20589;-71
2022/03/17 10:03:34;;;;;;;14.10;2.85;;;9.10;73.00;;;;;;4934204;29;20056;-73
2022/03/17 10:06:05;;;;;;;16.88;2.47;;;9.10;71.80;;;;;;4933726;29;20186;-71
2022/03/17 10:08:33;;;;;;;18.17;4.53;;;9.10;70.40;;;;;;4934313;29;20056;-72
2022/03/17 10:10:58;;;;;;;12.18;2.85;;;9.10;70.40;;;;;;4934090;29;20055;-72
2022/03/17 10:13:25;;;;;;;18.58;7.38;;;9.20;71.20;;;;;;4933009;29;20514;-72
2022/03/17 10:16:18;;;;;;;10.73;2.58;;;9.20;71.50;;;;;;4916103;29;20130;-71
2022/03/17 10:18:46;;;;;;;12.88;2.53;;;9.30;70.70;;;;;;4933399;29;20416;-69
2022/03/17 10:21:12;;;;;;;14.25;3.63;;;9.20;71.20;;;;;;4932772;29;20055;-71
2022/03/17 10:23:49;;;;;;;17.00;2.50;;;9.30;71.40;;;;;;4936150;29;20173;-71
2022/03/17 10:26:33;;;;;;;16.73;2.97;;;9.30;71.50;;;;;;4911117;29;20042;-70
2022/03/17 10:29:22;;;;;;;17.48;4.25;;;9.40;72.10;;;;;;4930294;29;20138;-70
2022/03/17 10:32:11;;;;;;;18.20;2.80;;;9.40;71.30;;;;;;4913525;29;20512;-70
2022/03/17 10:34:45;;;;;;;13.25;3.00;;;9.40;70.50;;;;;;4929856;29;20055;-70
2022/03/17 10:37:15;;;;;;;18.17;3.85;;;9.50;70.50;;;;;;4931721;29;20067;-70
2022/03/17 10:39:48;;;;;;;15.73;3.85;;;9.50;73.10;;;;;;4931304;29;20050;-69
2022/03/17 10:42:19;;;;;;;11.73;3.35;;;9.50;72.80;;;;;;4931750;29;20062;-70
2022/03/17 10:44:51;;;;;;;15.73;3.30;;;9.40;72.70;;;;;;4931729;29;20464;-70
2022/03/17 10:47:28;;;;;;;16.48;2.72;;;9.30;73.10;;;;;;4914737;29;20047;-69
2022/03/17 10:50:13;;;;;;;18.10;3.28;;;9.30;71.40;;;;;;4906776;29;20060;-70
2022/03/17 10:52:57;;;;;;;13.27;3.10;;;9.20;71.60;;;;;;4910509;29;20055;-71
2022/03/17 10:55:28;;;;;;;9.27;3.03;;;9.30;71.80;;;;;;4912115;29;20343;-71
2022/03/17 10:58:14;;;;;;;13.73;3.63;;;9.30;71.50;;;;;;4894921;29;20136;-71
2022/03/17 11:00:45;;;;;;;11.68;2.17;;;9.40;71.40;;;;;;4899138;29;20059;-72
2022/03/17 11:03:12;;;;;;;17.30;3.05;;;9.30;71.60;;;;;;4895819;29;20131;-71
2022/03/17 11:05:38;;;;;;;14.93;3.53;;;9.40;71.00;;;;;;4910562;29;20048;-72
2022/03/17 11:08:09;;;;;;;12.18;3.65;;;9.60;71.60;;;;;;4898399;29;20136;-71
2022/03/17 11:10:44;;;;;;;18.17;4.50;;;9.60;71.10;;;;;;4903924;29;20056;-76
2022/03/17 11:13:11;;;;;;;11.70;2.72;;;9.60;71.00;;;;;;4912043;29;20048;-73
2022/03/17 11:15:45;;;;;;;14.48;3.22;;;9.70;70.90;;;;;;4907631;29;20064;-73
2022/03/17 11:18:20;;;;;;;24.30;3.38;;;9.60;70.70;;;;;;4904254;29;20401;-73
2022/03/17 11:20:46;;;;;;;13.05;2.63;;;9.70;72.20;;;;;;4912337;29;20040;-70
2022/03/17 11:23:18;;;;;;;15.73;4.05;;;9.70;71.70;;;;;;4907940;29;20051;-73
2022/03/17 11:25:58;;;;;;;17.23;4.60;;;9.70;71.70;;;;;;4909874;29;20091;-72
2022/03/17 11:28:37;;;;;;;17.98;3.30;;;9.70;71.60;;;;;;4905394;29;20040;-73
2022/03/17 11:31:11;;;;;;;19.40;4.28;;;9.70;71.90;;;;;;4913395;29;20051;-75
2022/03/17 11:33:39;;;;;;;21.60;3.80;;;9.80;71.60;;;;;;4912757;29;20051;-74
2022/03/17 11:36:08;;;;;;;16.52;2.80;;;9.80;71.30;;;;;;4914051;29;20052;-73
2022/03/17 11:38:37;;;;;;;14.63;3.33;;;9.80;70.60;;;;;;4914404;29;20095;-73
2022/03/17 11:41:10;;;;;;;13.40;2.55;;;9.70;71.10;;;;;;4912885;29;20100;-72
2022/03/17 11:43:46;;;;;;;16.80;3.08;;;9.80;70.40;;;;;;4908245;29;20075;-74
2022/03/17 11:46:15;;;;;;;15.52;2.88;;;9.80;69.60;;;;;;4903020;29;20454;-73
2022/03/17 11:48:42;;;;;;;18.27;3.33;;;9.70;68.90;;;;;;4908102;29;20510;-73
2022/03/17 11:51:10;;;;;;;18.65;4.53;;;9.80;70.20;;;;;;4910568;29;20576;-72
2022/03/17 11:53:45;;;;;;;20.98;3.47;;;9.70;69.40;;;;;;4898660;29;20048;-72
2022/03/17 11:56:32;;;;;;;16.40;2.65;;;9.60;69.80;;;;;;4916053;29;20060;-72
2022/03/17 11:58:58;;;;;;;15.57;3.10;;;9.60;69.60;;;;;;4898238;29;20040;-74
2022/03/17 12:01:32;;;;;;;22.85;5.60;;;9.60;69.80;;;;;;4885800;29;20058;-71
2022/03/17 12:03:59;;;;;;;17.08;3.35;;;9.70;69.00;;;;;;4908184;29;20048;-68
2022/03/17 12:06:27;;;;;;;13.18;3.38;;;9.60;67.70;;;;;;4906927;29;20044;-70
2022/03/17 12:09:00;;;;;;;14.15;3.67;;;9.60;68.70;;;;;;4914879;29;20050;-69
2022/03/17 12:11:38;;;;;;;15.82;2.97;;;9.70;67.70;;;;;;4913860;29;20052;-69
2022/03/17 12:14:17;;;;;;;13.50;2.95;;;9.80;68.00;;;;;;4911234;29;20139;-68
2022/03/17 12:16:57;;;;;;;16.95;2.42;;;9.90;67.60;;;;;;4915113;29;20175;-69
2022/03/17 12:19:27;;;;;;;13.32;2.53;;;9.90;67.90;;;;;;4916592;29;20052;-70
2022/03/17 12:22:01;;;;;;;10.30;2.17;;;9.90;67.70;;;;;;4904297;29;20128;-69
2022/03/17 12:24:47;;;;;;;12.68;2.45;;;9.90;66.40;;;;;;4904343;29;20044;-67
2022/03/17 12:27:18;;;;;;;14.32;2.25;;;9.90;65.30;;;;;;4903014;29;20048;-70
2022/03/17 12:29:46;;;;;;;17.20;2.90;;;9.80;64.70;;;;;;4900692;29;20135;-70
2022/03/17 12:32:20;;;;;;;13.15;2.65;;;9.80;64.50;;;;;;4905419;29;20095;-70
2022/03/17 12:34:51;;;;;;;17.13;2.80;;;9.90;65.10;;;;;;4906809;29;20048;-69
2022/03/17 12:37:18;;;;;;;13.75;2.15;;;10.00;65.20;;;;;;4890530;29;20052;-68
2022/03/17 12:39:54;;;;;;;9.57;2.08;;;10.10;64.30;;;;;;4901861;29;20045;-69
2022/03/17 12:42:29;;;;;;;12.48;2.60;;;10.20;64.60;;;;;;4909871;29;20060;-69
2022/03/17 12:45:00;;;;;;;18.77;3.08;;;10.20;65.80;;;;;;4928012;29;20102;-69
2022/03/17 12:47:27;;;;;;;10.25;2.53;;;10.20;64.90;;;;;;4931862;29;20055;-69
2022/03/17 12:49:54;;;;;;;13.85;2.92;;;10.30;64.20;;;;;;4920390;29;20394;-69
2022/03/17 12:52:22;;;;;;;12.10;1.90;;;10.40;64.50;;;;;;4932915;29;20055;-70
2022/03/17 12:54:53;;;;;;;14.68;2.13;;;10.20;61.90;;;;;;4918247;29;20043;-69
2022/03/17 12:57:19;;;;;;;15.63;1.85;;;10.30;62.60;;;;;;4934255;29;20052;-69